Time;durP1;ratioP1;P1;durP2;ratioP2;P2;SDS_P1;SDS_P2;PMS_P1;PMS_P2;Temp;Humidity;BMP_temperature;BMP_pressure;BME280_temperature;BME280_humidity;BME280_pressure;Samples;Min_cycle;Max_cycle;Signal;HPM_P1;HPM_P2
2022/09/30 00:00:38;;;;;;;296.10;279.20;;;;;;;22.59;63.70;99879.63;116995;1186;21887;-63
2022/09/30 00:03:05;;;;;;;291.70;274.30;;;;;;;22.55;64.06;99878.29;117087;1186;23553;-62
2022/09/30 00:05:33;;;;;;;294.90;278.30;;;;;;;22.50;63.99;99882.72;117246;1186;22941;-63
2022/09/30 00:08:00;;;;;;;296.80;279.30;;;;;;;22.48;63.92;99883.98;117106;1186;23560;-63
2022/09/30 00:10:27;;;;;;;297.90;280.70;;;;;;;22.47;63.81;99884.40;117065;1186;21932;-61
2022/09/30 00:12:54;;;;;;;300.70;283.10;;;;;;;22.46;64.13;99885.95;117300;1186;22919;-63
2022/09/30 00:15:20;;;;;;;277.50;261.20;;;;;;;22.44;64.23;99889.98;116991;1182;22945;-62
2022/09/30 00:17:48;;;;;;;282.20;265.70;;;;;;;22.40;64.36;99891.44;117235;1186;22724;-63
2022/09/30 00:20:18;;;;;;;293.10;276.50;;;;;;;22.39;64.27;99896.37;117228;1185;21884;-62
2022/09/30 00:22:45;;;;;;;289.10;272.40;;;;;;;22.38;64.44;99897.30;117048;1187;22742;-61
2022/09/30 00:25:11;;;;;;;298.40;281.30;;;;;;;22.46;64.05;99898.98;117048;1187;22815;-63
2022/09/30 00:27:38;;;;;;;278.70;262.40;;;;;;;22.49;63.84;99902.48;117018;1187;22664;-61
2022/09/30 00:30:06;;;;;;;297.10;279.50;;;;;;;22.50;63.90;99899.77;117204;1184;22810;-64
2022/09/30 00:32:33;;;;;;;278.10;261.80;;;;;;;22.50;63.86;99899.77;117422;1182;23446;-63
2022/09/30 00:35:01;;;;;;;307.20;289.70;;;;;;;22.48;63.82;99897.38;117147;1186;23529;-63
2022/09/30 00:37:27;;;;;;;303.60;285.30;;;;;;;22.47;64.19;99893.71;117082;1182;22662;-63
2022/09/30 00:39:54;;;;;;;291.60;274.20;;;;;;;22.44;64.06;99894.77;116981;1187;21865;-63
2022/09/30 00:42:21;;;;;;;289.30;272.10;;;;;;;22.42;64.04;99895.61;116966;1187;21859;-63
2022/09/30 00:44:53;;;;;;;291.80;274.80;;;;;;;22.40;64.19;99892.13;116940;1186;23366;-63
2022/09/30 00:47:42;;;;;;;290.80;273.00;;;;;;;22.39;64.20;99892.56;119146;1182;22313;-64
2022/09/30 00:50:14;;;;;;;286.80;269.50;;;;;;;22.39;64.28;99889.72;118209;1185;22929;-61
2022/09/30 00:52:41;;;;;;;276.60;260.00;;;;;;;22.40;64.69;99898.08;119141;1184;22175;-62
2022/09/30 00:55:09;;;;;;;289.20;271.70;;;;;;;22.38;64.39;99899.29;119149;1182;22085;-60
2022/09/30 00:57:36;;;;;;;281.90;265.00;;;;;;;22.36;64.21;99899.42;119159;1187;21775;-60
2022/09/30 01:00:05;;;;;;;277.60;260.90;;;;;;;22.36;64.22;99903.54;117377;1184;22800;-61
2022/09/30 01:02:32;;;;;;;273.30;257.60;;;;;;;22.35;64.10;99906.09;117111;1187;23596;-61
2022/09/30 01:04:59;;;;;;;292.10;275.10;;;;;;;22.33;64.12;99905.48;117088;1187;22648;-61
2022/09/30 01:07:27;;;;;;;286.90;270.50;;;;;;;22.31;64.28;99907.77;117100;1187;22834;-61
2022/09/30 01:09:53;;;;;;;256.80;241.40;;;;;;;22.29;64.63;99909.73;117094;1187;22736;-62
2022/09/30 01:12:22;;;;;;;269.20;253.30;;;;;;;22.23;64.72;99906.55;117021;1188;21941;-63
2022/09/30 01:14:52;;;;;;;284.20;267.20;;;;;;;22.18;64.76;99910.48;117014;1186;24162;-61
2022/09/30 01:17:34;;;;;;;292.30;274.90;;;;;;;22.17;64.46;99914.45;117061;1188;23653;-62
2022/09/30 01:20:02;;;;;;;263.90;248.90;;;;;;;22.11;64.46;99917.34;117267;1186;21962;-61
2022/09/30 01:22:29;;;;;;;284.40;267.10;;;;;;;22.09;64.61;99919.13;117084;1187;21925;-61
2022/09/30 01:25:15;;;;;;;288.30;271.10;;;;;;;22.07;64.87;99923.36;117069;1187;21862;-61
2022/09/30 01:27:55;;;;;;;277.20;260.90;;;;;;;22.05;64.54;99929.40;117041;1185;22930;-63
2022/09/30 01:30:35;;;;;;;281.10;263.90;;;;;;;22.03;64.46;99930.76;117076;1188;21862;-61
2022/09/30 01:33:24;;;;;;;283.80;266.60;;;;;;;22.03;64.73;99932.05;117061;1187;21868;-63
2022/09/30 01:36:17;;;;;;;281.50;264.90;;;;;;;22.02;64.61;99935.35;116997;1184;24162;-63
2022/09/30 01:38:44;;;;;;;277.00;259.60;;;;;;;22.00;64.77;99941.34;117020;1188;21859;-62
2022/09/30 01:41:23;;;;;;;265.30;249.70;;;;;;;21.99;64.66;99948.34;117143;1184;23569;-60
2022/09/30 01:44:13;;;;;;;258.90;242.80;;;;;;;21.99;65.07;99946.20;117049;1186;21869;-60
2022/09/30 01:47:18;;;;;;;280.80;263.20;;;;;;;21.98;65.27;99946.10;116999;1186;24159;-60
2022/09/30 01:50:10;;;;;;;275.60;258.90;;;;;;;21.97;64.96;99947.63;117072;1187;22818;-60
2022/09/30 01:52:42;;;;;;;272.40;255.60;;;;;;;21.96;65.03;99949.14;116971;1185;23551;-59
2022/09/30 01:55:24;;;;;;;391.80;368.40;;;;;;;21.96;64.87;99950.36;119131;1186;22292;-60
2022/09/30 01:58:00;;;;;;;395.70;371.90;;;;;;;21.97;64.89;99954.21;119081;1184;21780;-61
2022/09/30 02:00:27;;;;;;;409.50;384.70;;;;;;;21.98;65.00;99957.54;119121;1186;21785;-62
2022/09/30 02:03:21;;;;;;;403.10;378.60;;;;;;;21.97;65.04;99962.21;119133;1186;22301;-62
2022/09/30 02:06:06;;;;;;;384.10;361.70;;;;;;;21.98;65.27;99962.33;118086;1188;22656;-60
2022/09/30 02:08:42;;;;;;;380.00;357.70;;;;;;;21.97;64.84;99968.67;118547;1186;23643;-60
2022/09/30 02:11:19;;;;;;;383.40;360.80;;;;;;;21.96;65.17;99969.48;116968;1187;22651;-63
2022/09/30 02:14:11;;;;;;;375.40;353.70;;;;;;;21.94;65.44;99972.98;116928;1183;23042;-62
2022/09/30 02:16:40;;;;;;;397.10;373.50;;;;;;;21.91;65.42;99974.98;117072;1188;22627;-62
2022/09/30 02:19:39;;;;;;;385.50;363.30;;;;;;;21.89;65.46;99973.66;117095;1184;23456;-63
2022/09/30 02:22:08;;;;;;;381.30;359.10;;;;;;;21.87;65.48;99980.81;117020;1187;21874;-63
2022/09/30 02:24:38;;;;;;;406.10;382.40;;;;;;;21.84;65.33;99977.91;117020;1185;23606;-62
2022/09/30 02:27:07;;;;;;;420.30;395.90;;;;;;;21.82;65.35;99976.05;116990;1187;21866;-62
2022/09/30 02:29:36;;;;;;;403.80;380.00;;;;;;;21.82;65.47;99976.48;117014;1185;21870;-62
2022/09/30 02:32:08;;;;;;;397.40;374.30;;;;;;;21.80;66.13;99982.30;117055;1187;21862;-62
2022/09/30 02:34:40;;;;;;;383.40;361.10;;;;;;;21.78;66.36;99987.25;117010;1186;21870;-61
2022/09/30 02:37:15;;;;;;;406.70;381.70;;;;;;;21.75;66.29;99990.98;117095;1186;23592;-62
2022/09/30 02:40:01;;;;;;;410.90;386.00;;;;;;;21.75;65.72;99994.09;117053;1186;22949;-62
2022/09/30 02:42:29;;;;;;;400.20;375.60;;;;;;;21.74;65.97;99995.54;117009;1184;23625;-62
2022/09/30 02:45:00;;;;;;;402.30;377.40;;;;;;;21.73;66.29;100000.42;116975;1186;22657;-63
2022/09/30 02:47:43;;;;;;;465.00;435.90;;;;;;;21.73;66.14;99999.02;117005;1187;21896;-61
2022/09/30 02:50:27;;;;;;;544.10;509.20;;;;;;;21.73;66.53;99997.75;116943;1187;22639;-64
2022/09/30 02:53:13;;;;;;;554.00;519.10;;;;;;;21.72;65.95;99995.83;117310;1183;23547;-63
2022/09/30 02:55:50;;;;;;;555.90;520.40;;;;;;;21.71;66.04;99997.02;117148;1186;23374;-60
2022/09/30 02:58:21;;;;;;;554.30;519.60;;;;;;;21.71;65.85;99996.29;117011;1186;23647;-61
2022/09/30 03:00:49;;;;;;;548.20;514.70;;;;;;;21.71;65.73;99996.25;117055;1185;22112;-61
2022/09/30 03:03:40;;;;;;;534.90;501.90;;;;;;;21.71;65.91;99994.88;119139;1182;21848;-62
2022/09/30 03:06:08;;;;;;;527.70;495.70;;;;;;;21.70;65.98;99987.95;119326;1182;21810;-62
2022/09/30 03:08:35;;;;;;;544.70;511.70;;;;;;;21.68;66.08;99988.75;119087;1186;21805;-62
2022/09/30 03:11:02;;;;;;;543.40;510.70;;;;;;;21.67;65.71;99991.69;119152;1182;21803;-62
2022/09/30 03:13:41;;;;;;;531.80;499.40;;;;;;;21.65;65.62;99990.01;119153;1181;22269;-63
2022/09/30 03:16:20;;;;;;;527.80;496.50;;;;;;;21.63;66.05;99996.75;119141;1186;21788;-62
2022/09/30 03:18:55;;;;;;;528.30;496.30;;;;;;;21.61;65.92;99999.61;118559;1187;21900;-61
2022/09/30 03:21:37;;;;;;;525.10;493.20;;;;;;;21.59;65.55;100002.56;117076;1185;21938;-61
2022/09/30 03:24:30;;;;;;;526.40;494.30;;;;;;;21.59;65.58;100004.18;117036;1187;21860;-61
2022/09/30 03:27:29;;;;;;;529.10;496.00;;;;;;;21.55;65.70;100007.59;117050;1184;22996;-62
2022/09/30 03:30:02;;;;;;;537.60;505.00;;;;;;;21.53;65.50;100007.91;117036;1182;22919;-62
2022/09/30 03:32:35;;;;;;;532.40;499.90;;;;;;;21.50;65.59;100009.86;117128;1182;23550;-63
2022/09/30 03:35:26;;;;;;;532.50;500.80;;;;;;;21.49;65.53;100011.38;117089;1187;22922;-62
2022/09/30 03:38:15;;;;;;;;;;;;;;;21.48;65.59;100009.66;117012;1184;23540;-62
2022/09/30 03:41:04;;;;;;;472.50;444.20;;;;;;;21.45;66.53;100015.20;117146;1184;22938;-62
2022/09/30 03:43:37;;;;;;;498.40;467.70;;;;;;;21.41;66.32;100017.98;117032;1186;22014;-62
2022/09/30 03:46:24;;;;;;;508.30;478.30;;;;;;;21.39;66.16;100024.01;117751;1187;22913;-64
2022/09/30 03:48:54;;;;;;;518.30;487.50;;;;;;;21.36;65.99;100022.02;117043;1186;21859;-62
2022/09/30 03:51:23;;;;;;;530.60;498.80;;;;;;;21.35;66.00;100020.51;117236;1186;21859;-62
2022/09/30 03:53:52;;;;;;;531.80;499.40;;;;;;;21.32;66.20;100023.51;116973;1187;21869;-61
2022/09/30 03:56:27;;;;;;;528.50;496.50;;;;;;;21.32;66.00;100029.56;116983;1186;24258;-62
2022/09/30 03:58:55;;;;;;;542.90;509.50;;;;;;;21.25;66.08;100033.40;117070;1186;22741;-62
2022/09/30 04:01:22;;;;;;;551.10;516.60;;;;;;;21.19;66.28;100041.63;117106;1182;22923;-62
2022/09/30 04:03:52;;;;;;;540.80;507.20;;;;;;;21.20;66.42;100042.67;117317;1185;23546;-62
2022/09/30 04:06:21;;;;;;;529.10;497.70;;;;;;;21.23;66.29;100045.66;117297;1185;21922;-62
2022/09/30 04:08:49;;;;;;;518.70;487.00;;;;;;;21.23;66.38;100044.91;117381;1185;22972;-62
2022/09/30 04:11:16;;;;;;;535.20;502.70;;;;;;;21.20;66.78;100048.52;117056;1189;21889;-62
2022/09/30 04:13:44;;;;;;;506.60;476.20;;;;;;;21.16;66.26;100049.33;119280;1186;21772;-62
2022/09/30 04:16:11;;;;;;;528.10;496.60;;;;;;;21.14;66.22;100049.59;119102;1185;21844;-62
2022/09/30 04:18:38;;;;;;;527.90;496.00;;;;;;;21.14;66.16;100052.50;119116;1183;21771;-63
2022/09/30 04:21:09;;;;;;;517.80;487.10;;;;;;;21.14;66.52;100058.03;119122;1187;21772;-63
2022/09/30 04:23:36;;;;;;;513.00;482.90;;;;;;;21.10;66.14;100064.09;119102;1186;21791;-63
2022/09/30 04:26:04;;;;;;;504.70;474.90;;;;;;;21.10;66.13;100072.67;119127;1186;22081;-62
2022/09/30 04:28:33;;;;;;;517.30;486.90;;;;;;;21.10;66.07;100077.70;118683;1187;21858;-62
2022/09/30 04:31:01;;;;;;;514.50;483.70;;;;;;;21.09;66.04;100074.17;117182;1187;22007;-62
2022/09/30 04:33:28;;;;;;;503.30;473.80;;;;;;;21.09;65.88;100078.60;117034;1187;23478;-62
2022/09/30 04:35:55;;;;;;;507.80;477.90;;;;;;;21.11;66.06;100080.31;116985;1185;22653;-62
2022/09/30 04:38:23;;;;;;;527.50;496.70;;;;;;;21.08;65.87;100082.78;117093;1187;24010;-62
2022/09/30 04:40:51;;;;;;;511.30;481.50;;;;;;;21.06;65.85;100083.45;117027;1186;23550;-62
2022/09/30 04:43:18;;;;;;;516.30;485.90;;;;;;;21.06;65.80;100090.06;117078;1187;22626;-62
2022/09/30 04:45:45;;;;;;;506.70;477.00;;;;;;;21.07;65.85;100090.52;116933;1184;23552;-62
2022/09/30 04:48:12;;;;;;;518.00;487.70;;;;;;;21.08;65.78;100088.11;116967;1187;24073;-62
2022/09/30 04:50:40;;;;;;;505.40;475.40;;;;;;;21.09;65.76;100085.95;117042;1187;22756;-62
2022/09/30 04:53:08;;;;;;;493.70;464.60;;;;;;;21.07;65.65;100086.76;117036;1187;22389;-62
2022/09/30 04:55:35;;;;;;;480.00;452.10;;;;;;;21.08;65.67;100089.40;117043;1186;21854;-62
2022/09/30 04:58:02;;;;;;;505.50;475.90;;;;;;;21.07;65.54;100096.21;116985;1187;21915;-62
2022/09/30 05:00:30;;;;;;;509.70;480.00;;;;;;;21.08;65.60;100094.02;117004;1182;23550;-62
2022/09/30 05:02:57;;;;;;;508.10;478.30;;;;;;;21.09;65.61;100093.27;117023;1187;22726;-62
2022/09/30 05:05:24;;;;;;;515.40;485.20;;;;;;;21.10;65.66;100094.27;117051;1184;22811;-62
2022/09/30 05:07:51;;;;;;;519.50;488.20;;;;;;;21.12;65.48;100092.02;117092;1187;21957;-62
2022/09/30 05:10:20;;;;;;;507.40;477.60;;;;;;;21.14;65.73;100092.59;117069;1188;23570;-61
2022/09/30 05:12:48;;;;;;;508.40;478.30;;;;;;;21.18;65.90;100093.95;117026;1187;21849;-62
2022/09/30 05:15:16;;;;;;;504.00;474.40;;;;;;;21.21;65.68;100086.64;117185;1185;24187;-62
2022/09/30 05:17:44;;;;;;;511.70;481.90;;;;;;;21.23;65.41;100084.86;116864;1187;21861;-63
2022/09/30 05:20:11;;;;;;;503.10;474.10;;;;;;;21.28;65.37;100087.67;119181;1183;22266;-62
